PWSweather.com
Personal Weather Stations
Station Observations
K4FB1
Clubhouse Heritage, Lakeland, FL 33812

Clubhouse HeritageLakeland, FL 33812

Lat: 27.969224, Lon: -81.897769

Elevation: 145

Station Type: Davis Vantage Pro2

http://www.ClubhouseWX.com

Latest ConditionsUpdated 6:35:00 PM EDT Friday, Jul 21, 2017
Currently Today's Max Today's Min Today's Average
Temperature 73.1°F22.8°C 91.4°F33.0°C 70.3°F21.3°C 77.1°F25.1°C
Dew Point 71.3°F21.8°C 82.0°F27.8°C 67.5°F19.7°C 73.8°F23.2°C
Winds 1.0 mph WNW1.6 kmh WNW 12.0 mph NW19.3 kmh NW - 1.6 mph 2.6 kmh
Wind Gusts 4.0 mph6.4 kmh 24.0 mph38.6 kmh - -
Humidity 94% 95% 69% 90%
Pressure 30.02 in1016.6 mb 30.10 in1019.3 mb 29.98 in1015.2 mb -
Precipitation - 1.29 in32.8 mm - -
Hour Temp Dew Point Humidity Winds Wind Gusts Pressure Precip Precip Rate Daily Precip Total
06:35 PM 73.1°F22.8°C 71.3°F21.8°C 94% 1.0 mph WNW1.6 kmh WNW 4.0 mph6.4 kmh 30.02 in1016.6 mb 0.00 in0.0 mm 0.00 in0.0 mm 1.29 in32.8 mm
06:30 PM 73.1°F22.8°C 71.3°F21.8°C 94% 1.0 mph W1.6 kmh W 4.0 mph6.4 kmh 30.02 in1016.6 mb 0.00 in0.0 mm 0.00 in0.0 mm 1.29 in32.8 mm
06:25 PM 73.1°F22.8°C 71.3°F21.8°C 94% 1.0 mph WSW1.6 kmh WSW 3.0 mph4.8 kmh 30.01 in1016.3 mb 0.00 in0.0 mm 0.00 in0.0 mm 1.29 in32.8 mm
06:20 PM 73.0°F22.8°C 71.2°F21.8°C 94% 1.0 mph W1.6 kmh W 3.0 mph4.8 kmh 30.01 in1016.3 mb 0.00 in0.0 mm 0.00 in0.0 mm 1.29 in32.8 mm
06:15 PM 73.0°F22.8°C 71.2°F21.8°C 94% 2.0 mph W3.2 kmh W 6.0 mph9.7 kmh 30.02 in1016.6 mb 0.00 in0.0 mm 0.00 in0.0 mm 1.29 in32.8 mm
06:10 PM 73.0°F22.8°C 71.2°F21.8°C 94% 2.0 mph W3.2 kmh W 6.0 mph9.7 kmh 30.02 in1016.6 mb 0.00 in0.0 mm 0.00 in0.0 mm 1.29 in32.8 mm
06:05 PM 72.9°F22.7°C 71.1°F21.7°C 94% 1.0 mph WSW1.6 kmh WSW 6.0 mph9.7 kmh 30.02 in1016.6 mb 0.00 in0.0 mm 0.00 in0.0 mm 1.29 in32.8 mm
06:00 PM 72.8°F22.7°C 71.0°F21.7°C 94% Calm Calm 2.0 mph3.2 kmh 30.01 in1016.3 mb 0.00 in0.0 mm 0.00 in0.0 mm 1.29 in32.8 mm
05:55 PM 72.6°F22.6°C 70.8°F21.6°C 94% Calm Calm 2.0 mph3.2 kmh 30.01 in1016.3 mb 0.00 in0.0 mm 0.00 in0.0 mm 1.29 in32.8 mm
05:50 PM 72.4°F22.4°C 70.6°F21.4°C 94% Calm Calm 2.0 mph3.2 kmh 30.01 in1016.3 mb 0.00 in0.0 mm 0.00 in0.0 mm 1.29 in32.8 mm
05:45 PM 72.1°F22.3°C 70.3°F21.3°C 94% Calm Calm 2.0 mph3.2 kmh 30.01 in1016.3 mb 0.00 in0.0 mm 0.00 in0.0 mm 1.29 in32.8 mm
05:40 PM 72.0°F22.2°C 70.2°F21.2°C 94% 1.0 mph SE1.6 kmh SE 2.0 mph3.2 kmh 30.02 in1016.6 mb 0.00 in0.0 mm 0.00 in0.0 mm 1.29 in32.8 mm
05:35 PM 71.8°F22.1°C 70.0°F21.1°C 94% Calm Calm 2.0 mph3.2 kmh 30.03 in1016.9 mb 0.00 in0.0 mm 0.00 in0.0 mm 1.29 in32.8 mm
05:30 PM 71.7°F22.1°C 69.9°F21.1°C 94% 1.0 mph SE1.6 kmh SE 4.0 mph6.4 kmh 30.03 in1016.9 mb 0.00 in0.0 mm 0.00 in0.0 mm 1.29 in32.8 mm
05:25 PM 71.7°F22.1°C 69.9°F21.1°C 94% 2.0 mph SE3.2 kmh SE 4.0 mph6.4 kmh 30.03 in1016.9 mb 0.00 in0.0 mm 0.00 in0.0 mm 1.29 in32.8 mm
05:20 PM 71.7°F22.1°C 69.9°F21.1°C 94% 2.0 mph SE3.2 kmh SE 4.0 mph6.4 kmh 30.04 in1017.3 mb 0.00 in0.0 mm 0.00 in0.0 mm 1.29 in32.8 mm
05:15 PM 71.7°F22.1°C 69.9°F21.1°C 94% 2.0 mph SSE3.2 kmh SSE 5.0 mph8.0 kmh 30.05 in1017.6 mb 0.00 in0.0 mm 0.00 in0.0 mm 1.29 in32.8 mm
05:10 PM 71.7°F22.1°C 69.9°F21.1°C 94% 2.0 mph SSE3.2 kmh SSE 5.0 mph8.0 kmh 30.05 in1017.6 mb 0.00 in0.0 mm 0.00 in0.0 mm 1.29 in32.8 mm
05:05 PM 71.5°F21.9°C 69.7°F20.9°C 94% 1.0 mph SE1.6 kmh SE 4.0 mph6.4 kmh 30.06 in1017.9 mb 0.00 in0.0 mm 0.00 in0.0 mm 1.29 in32.8 mm
05:00 PM 71.4°F21.9°C 69.6°F20.9°C 94% 1.0 mph SE1.6 kmh SE 4.0 mph6.4 kmh 30.06 in1017.9 mb 0.00 in0.0 mm 0.00 in0.0 mm 1.29 in32.8 mm
04:55 PM 71.3°F21.8°C 69.5°F20.8°C 94% 2.0 mph SE3.2 kmh SE 7.0 mph11.3 kmh 30.06 in1017.9 mb 0.00 in0.0 mm 0.00 in0.0 mm 1.29 in32.8 mm
04:50 PM 71.2°F21.8°C 69.1°F20.6°C 93% 1.0 mph SE1.6 kmh SE 7.0 mph11.3 kmh 30.07 in1018.3 mb 0.00 in0.0 mm 0.00 in0.0 mm 1.29 in32.8 mm
04:45 PM 71.2°F21.8°C 69.1°F20.6°C 93% 1.0 mph SE1.6 kmh SE 3.0 mph4.8 kmh 30.07 in1018.3 mb 0.00 in0.0 mm 0.00 in0.0 mm 1.29 in32.8 mm
04:40 PM 71.1°F21.7°C 69.0°F20.6°C 93% 1.0 mph SSE1.6 kmh SSE 3.0 mph4.8 kmh 30.07 in1018.3 mb 0.00 in0.0 mm 0.00 in0.0 mm 1.29 in32.8 mm
04:35 PM 71.2°F21.8°C 69.1°F20.6°C 93% 1.0 mph S1.6 kmh S 2.0 mph3.2 kmh 30.07 in1018.3 mb 0.01 in0.3 mm 0.00 in0.0 mm 1.29 in32.8 mm
04:30 PM 71.0°F21.7°C 69.2°F20.7°C 94% Calm Calm 2.0 mph3.2 kmh 30.07 in1018.3 mb 0.01 in0.3 mm 0.00 in0.0 mm 1.29 in32.8 mm
04:25 PM 71.0°F21.7°C 69.2°F20.7°C 94% 1.0 mph SSE1.6 kmh SSE 3.0 mph4.8 kmh 30.07 in1018.3 mb 0.01 in0.3 mm 0.00 in0.0 mm 1.29 in32.8 mm
04:20 PM 71.0°F21.7°C 68.9°F20.5°C 93% 1.0 mph SE1.6 kmh SE 3.0 mph4.8 kmh 30.06 in1017.9 mb 0.01 in0.3 mm 0.00 in0.0 mm 1.29 in32.8 mm
04:15 PM 70.9°F21.6°C 68.8°F20.4°C 93% 2.0 mph SE3.2 kmh SE 4.0 mph6.4 kmh 30.06 in1017.9 mb 0.02 in0.5 mm 0.00 in0.0 mm 1.29 in32.8 mm
04:10 PM 70.8°F21.6°C 68.7°F20.4°C 93% 2.0 mph SSE3.2 kmh SSE 5.0 mph8.0 kmh 30.07 in1018.3 mb 0.03 in0.8 mm 0.00 in0.0 mm 1.29 in32.8 mm
04:05 PM 70.7°F21.5°C 68.6°F20.3°C 93% 2.0 mph S3.2 kmh S 5.0 mph8.0 kmh 30.06 in1017.9 mb 0.08 in2.0 mm 0.00 in0.0 mm 1.29 in32.8 mm
04:00 PM 70.7°F21.5°C 68.6°F20.3°C 93% 3.0 mph SE4.8 kmh SE 6.0 mph9.7 kmh 30.06 in1017.9 mb 0.25 in6.4 mm 0.00 in0.0 mm 1.29 in32.8 mm
03:55 PM 70.7°F21.5°C 68.6°F20.3°C 93% 3.0 mph SE4.8 kmh SE 6.0 mph9.7 kmh 30.06 in1017.9 mb 0.57 in14.5 mm 0.00 in0.0 mm 1.29 in32.8 mm
03:50 PM 70.6°F21.4°C 68.5°F20.3°C 93% 2.0 mph SE3.2 kmh SE 5.0 mph8.0 kmh 30.06 in1017.9 mb 0.91 in23.1 mm 0.00 in0.0 mm 1.29 in32.8 mm
03:45 PM 70.5°F21.4°C 68.4°F20.2°C 93% 2.0 mph ESE3.2 kmh ESE 5.0 mph8.0 kmh 30.05 in1017.6 mb 1.04 in26.4 mm 0.00 in0.0 mm 1.29 in32.8 mm
03:40 PM 70.6°F21.4°C 68.5°F20.3°C 93% 1.0 mph E1.6 kmh E 4.0 mph6.4 kmh 30.05 in1017.6 mb 1.15 in29.2 mm 0.00 in0.0 mm 1.29 in32.8 mm
03:35 PM 70.6°F21.4°C 68.5°F20.3°C 93% 2.0 mph ESE3.2 kmh ESE 4.0 mph6.4 kmh 30.05 in1017.6 mb 1.22 in31.0 mm 0.00 in0.0 mm 1.28 in32.5 mm
03:30 PM 70.6°F21.4°C 68.2°F20.1°C 92% 2.0 mph SSW3.2 kmh SSW 4.0 mph6.4 kmh 30.05 in1017.6 mb 1.26 in32.0 mm 0.00 in0.0 mm 1.28 in32.5 mm
03:25 PM 70.5°F21.4°C 68.1°F20.1°C 92% 1.0 mph WSW1.6 kmh WSW 4.0 mph6.4 kmh 30.05 in1017.6 mb 1.28 in32.5 mm 0.00 in0.0 mm 1.28 in32.5 mm
03:20 PM 70.3°F21.3°C 67.9°F19.9°C 92% 1.0 mph NW1.6 kmh NW 3.0 mph4.8 kmh 30.05 in1017.6 mb 1.28 in32.5 mm 0.12 in3.0 mm 1.28 in32.5 mm
03:15 PM 70.3°F21.3°C 67.5°F19.7°C 91% 3.0 mph N4.8 kmh N 8.0 mph12.9 kmh 30.06 in1017.9 mb 1.27 in32.3 mm 0.12 in3.0 mm 1.27 in32.3 mm
03:10 PM 70.5°F21.4°C 67.7°F19.8°C 91% 4.0 mph N6.4 kmh N 9.0 mph14.5 kmh 30.07 in1018.3 mb 1.26 in32.0 mm 0.72 in18.3 mm 1.26 in32.0 mm
03:05 PM 71.0°F21.7°C 68.2°F20.1°C 91% 6.0 mph N9.7 kmh N 14.0 mph22.5 kmh 30.08 in1018.6 mb 1.20 in30.5 mm 2.16 in54.9 mm 1.20 in30.5 mm
03:00 PM 71.7°F22.1°C 68.6°F20.3°C 90% 9.0 mph NW14.5 kmh NW 20.0 mph32.2 kmh 30.10 in1019.3 mb 1.02 in25.9 mm 0.33 in8.4 mm 1.02 in25.9 mm
02:55 PM 72.6°F22.6°C 69.8°F21.0°C 91% 11.0 mph NW17.7 kmh NW 20.0 mph32.2 kmh 30.10 in1019.3 mb 0.72 in18.3 mm 4.08 in103.6 mm 0.72 in18.3 mm
02:50 PM 73.6°F23.1°C 70.8°F21.6°C 91% 12.0 mph NW19.3 kmh NW 24.0 mph38.6 kmh 30.09 in1019.0 mb 0.38 in9.7 mm 1.56 in39.6 mm 0.38 in9.7 mm
02:45 PM 74.5°F23.6°C 71.4°F21.9°C 90% 11.0 mph NNW17.7 kmh NNW 24.0 mph38.6 kmh 30.07 in1018.3 mb 0.25 in6.4 mm 1.32 in33.5 mm 0.25 in6.4 mm
02:40 PM 75.4°F24.1°C 71.6°F22.0°C 88% 7.0 mph NW11.3 kmh NW 17.0 mph27.4 kmh 30.06 in1017.9 mb 0.14 in3.6 mm 0.96 in24.4 mm 0.14 in3.6 mm
02:35 PM 76.4°F24.7°C 71.9°F22.2°C 86% 6.0 mph NW9.7 kmh NW 15.0 mph24.1 kmh 30.06 in1017.9 mb 0.06 in1.5 mm 0.48 in12.2 mm 0.06 in1.5 mm
02:30 PM 77.2°F25.1°C 71.6°F22.0°C 83% 4.0 mph NNW6.4 kmh NNW 10.0 mph16.1 kmh 30.05 in1017.6 mb 0.02 in0.5 mm 0.24 in6.1 mm 0.02 in0.5 mm
02:25 PM 77.7°F25.4°C 71.4°F21.9°C 81% 3.0 mph N4.8 kmh N 9.0 mph14.5 kmh 30.04 in1017.3 mb 0.00 in0.0 mm 0.00 in0.0 mm 0.00 in0.0 mm
02:20 PM 78.1°F25.6°C 71.1°F21.7°C 79% 4.0 mph NE6.4 kmh NE 8.0 mph12.9 kmh 30.03 in1016.9 mb 0.00 in0.0 mm 0.00 in0.0 mm 0.00 in0.0 mm
02:15 PM 78.4°F25.8°C 71.3°F21.8°C 79% 3.0 mph NE4.8 kmh NE 9.0 mph14.5 kmh 30.03 in1016.9 mb 0.00 in0.0 mm 0.00 in0.0 mm 0.00 in0.0 mm
02:10 PM 78.8°F26.0°C 71.4°F21.9°C 78% 2.0 mph NE3.2 kmh NE 9.0 mph14.5 kmh 30.04 in1017.3 mb 0.00 in0.0 mm 0.00 in0.0 mm 0.00 in0.0 mm
02:05 PM 79.1°F26.2°C 71.6°F22.0°C 78% 4.0 mph NE6.4 kmh NE 12.0 mph19.3 kmh 30.04 in1017.3 mb 0.00 in0.0 mm 0.00 in0.0 mm 0.00 in0.0 mm
02:00 PM 79.5°F26.4°C 71.7°F22.1°C 77% 5.0 mph NE8.0 kmh NE 12.0 mph19.3 kmh 30.05 in1017.6 mb 0.00 in0.0 mm 0.00 in0.0 mm 0.00 in0.0 mm
01:55 PM 79.8°F26.6°C 72.3°F22.4°C 78% 3.0 mph NE4.8 kmh NE 12.0 mph19.3 kmh 30.05 in1017.6 mb 0.00 in0.0 mm 0.00 in0.0 mm 0.00 in0.0 mm
01:50 PM 79.9°F26.6°C 73.5°F23.1°C 81% 2.0 mph E3.2 kmh E 6.0 mph9.7 kmh 30.05 in1017.6 mb 0.00 in0.0 mm 0.00 in0.0 mm 0.00 in0.0 mm
01:45 PM 79.8°F26.6°C 73.8°F23.2°C 82% 3.0 mph ESE4.8 kmh ESE 7.0 mph11.3 kmh 30.04 in1017.3 mb 0.00 in0.0 mm 0.00 in0.0 mm 0.00 in0.0 mm
01:40 PM 79.8°F26.6°C 74.2°F23.4°C 83% 4.0 mph SE6.4 kmh SE 8.0 mph12.9 kmh 30.04 in1017.3 mb 0.00 in0.0 mm 0.00 in0.0 mm 0.00 in0.0 mm
01:35 PM 79.9°F26.6°C 74.6°F23.7°C 84% 5.0 mph SE8.0 kmh SE 13.0 mph20.9 kmh 30.04 in1017.3 mb 0.00 in0.0 mm 0.00 in0.0 mm 0.00 in0.0 mm
01:30 PM 80.1°F26.7°C 74.5°F23.6°C 83% 5.0 mph SE8.0 kmh SE 13.0 mph20.9 kmh 30.04 in1017.3 mb 0.00 in0.0 mm 0.00 in0.0 mm 0.00 in0.0 mm
01:25 PM 80.9°F27.2°C 75.2°F24.0°C 83% 5.0 mph SE8.0 kmh SE 11.0 mph17.7 kmh 30.05 in1017.6 mb 0.00 in0.0 mm 0.00 in0.0 mm 0.00 in0.0 mm
01:20 PM 82.0°F27.8°C 75.6°F24.2°C 81% 4.0 mph SE6.4 kmh SE 10.0 mph16.1 kmh 30.05 in1017.6 mb 0.00 in0.0 mm 0.00 in0.0 mm 0.00 in0.0 mm
01:15 PM 83.3°F28.5°C 76.1°F24.5°C 79% 4.0 mph SE6.4 kmh SE 9.0 mph14.5 kmh 30.05 in1017.6 mb 0.00 in0.0 mm 0.00 in0.0 mm 0.00 in0.0 mm
01:10 PM 84.3°F29.1°C 77.5°F25.3°C 80% 4.0 mph SE6.4 kmh SE 9.0 mph14.5 kmh 30.05 in1017.6 mb 0.00 in0.0 mm 0.00 in0.0 mm 0.00 in0.0 mm
01:05 PM 85.3°F29.6°C 78.4°F25.8°C 80% 2.0 mph ESE3.2 kmh ESE 7.0 mph11.3 kmh 30.05 in1017.6 mb 0.00 in0.0 mm 0.00 in0.0 mm 0.00 in0.0 mm
01:00 PM 85.9°F29.9°C 79.4°F26.3°C 81% 1.0 mph ESE1.6 kmh ESE 4.0 mph6.4 kmh 30.05 in1017.6 mb 0.00 in0.0 mm 0.00 in0.0 mm 0.00 in0.0 mm
12:55 PM 86.3°F30.2°C 79.8°F26.6°C 81% 1.0 mph ESE1.6 kmh ESE 4.0 mph6.4 kmh 30.05 in1017.6 mb 0.00 in0.0 mm 0.00 in0.0 mm 0.00 in0.0 mm
12:50 PM 86.6°F30.3°C 80.1°F26.7°C 81% 1.0 mph ESE1.6 kmh ESE 4.0 mph6.4 kmh 30.05 in1017.6 mb 0.00 in0.0 mm 0.00 in0.0 mm 0.00 in0.0 mm
12:45 PM 86.7°F30.4°C 80.5°F26.9°C 82% 2.0 mph ESE3.2 kmh ESE 5.0 mph8.0 kmh 30.05 in1017.6 mb 0.00 in0.0 mm 0.00 in0.0 mm 0.00 in0.0 mm
12:40 PM 86.5°F30.3°C 81.8°F27.7°C 86% 3.0 mph SE4.8 kmh SE 6.0 mph9.7 kmh 30.05 in1017.6 mb 0.00 in0.0 mm 0.00 in0.0 mm 0.00 in0.0 mm
12:35 PM 85.8°F29.9°C 79.7°F26.5°C 82% 3.0 mph SE4.8 kmh SE 6.0 mph9.7 kmh 30.05 in1017.6 mb 0.00 in0.0 mm 0.00 in0.0 mm 0.00 in0.0 mm
12:30 PM 85.9°F29.9°C 79.8°F26.6°C 82% 2.0 mph ESE3.2 kmh ESE 4.0 mph6.4 kmh 30.05 in1017.6 mb 0.00 in0.0 mm 0.00 in0.0 mm 0.00 in0.0 mm
12:25 PM 86.3°F30.2°C 79.8°F26.6°C 81% 3.0 mph SSE4.8 kmh SSE 7.0 mph11.3 kmh 30.05 in1017.6 mb 0.00 in0.0 mm 0.00 in0.0 mm 0.00 in0.0 mm
12:20 PM 86.9°F30.5°C 79.6°F26.4°C 79% 4.0 mph SSE6.4 kmh SSE 7.0 mph11.3 kmh 30.05 in1017.6 mb 0.00 in0.0 mm 0.00 in0.0 mm 0.00 in0.0 mm
12:15 PM 87.9°F31.1°C 79.4°F26.3°C 76% 3.0 mph S4.8 kmh S 7.0 mph11.3 kmh 30.05 in1017.6 mb 0.00 in0.0 mm 0.00 in0.0 mm 0.00 in0.0 mm
12:10 PM 88.7°F31.5°C 79.3°F26.3°C 74% 1.0 mph S1.6 kmh S 7.0 mph11.3 kmh 30.05 in1017.6 mb 0.00 in0.0 mm 0.00 in0.0 mm 0.00 in0.0 mm
12:05 PM 89.0°F31.7°C 78.8°F26.0°C 72% Calm Calm 3.0 mph4.8 kmh 30.05 in1017.6 mb 0.00 in0.0 mm 0.00 in0.0 mm 0.00 in0.0 mm
12:00 PM 89.3°F31.8°C 79.1°F26.2°C 72% Calm Calm 1.0 mph1.6 kmh 30.06 in1017.9 mb 0.00 in0.0 mm 0.00 in0.0 mm 0.00 in0.0 mm
11:55 AM 89.5°F31.9°C 78.8°F26.0°C 71% 1.0 mph WSW1.6 kmh WSW 3.0 mph4.8 kmh 30.05 in1017.6 mb 0.00 in0.0 mm 0.00 in0.0 mm 0.00 in0.0 mm
11:50 AM 89.7°F32.1°C 79.0°F26.1°C 71% 1.0 mph SW1.6 kmh SW 3.0 mph4.8 kmh 30.06 in1017.9 mb 0.00 in0.0 mm 0.00 in0.0 mm 0.00 in0.0 mm
11:45 AM 90.2°F32.3°C 79.5°F26.4°C 71% 1.0 mph SSW1.6 kmh SSW 3.0 mph4.8 kmh 30.06 in1017.9 mb 0.00 in0.0 mm 0.00 in0.0 mm 0.00 in0.0 mm
11:40 AM 90.5°F32.5°C 79.4°F26.3°C 70% Calm Calm 3.0 mph4.8 kmh 30.06 in1017.9 mb 0.00 in0.0 mm 0.00 in0.0 mm 0.00 in0.0 mm
11:35 AM 90.7°F32.6°C 79.6°F26.4°C 70% 1.0 mph SSW1.6 kmh SSW 4.0 mph6.4 kmh 30.06 in1017.9 mb 0.00 in0.0 mm 0.00 in0.0 mm 0.00 in0.0 mm
11:30 AM 90.9°F32.7°C 79.3°F26.3°C 69% 2.0 mph S3.2 kmh S 4.0 mph6.4 kmh 30.06 in1017.9 mb 0.00 in0.0 mm 0.00 in0.0 mm 0.00 in0.0 mm
11:25 AM 91.4°F33.0°C 80.7°F27.1°C 71% 2.0 mph SE3.2 kmh SE 4.0 mph6.4 kmh 30.06 in1017.9 mb 0.00 in0.0 mm 0.00 in0.0 mm 0.00 in0.0 mm
11:20 AM 91.0°F32.8°C 82.0°F27.8°C 75% 2.0 mph SSE3.2 kmh SSE 6.0 mph9.7 kmh 30.06 in1017.9 mb 0.00 in0.0 mm 0.00 in0.0 mm 0.00 in0.0 mm
11:15 AM 90.4°F32.4°C 80.6°F27.0°C 73% 2.0 mph S3.2 kmh S 6.0 mph9.7 kmh 30.06 in1017.9 mb 0.00 in0.0 mm 0.00 in0.0 mm 0.00 in0.0 mm
11:10 AM 89.9°F32.2°C 80.9°F27.2°C 75% 1.0 mph SSW1.6 kmh SSW 5.0 mph8.0 kmh 30.06 in1017.9 mb 0.00 in0.0 mm 0.00 in0.0 mm 0.00 in0.0 mm
11:05 AM 89.4°F31.9°C 79.6°F26.4°C 73% 2.0 mph S3.2 kmh S 5.0 mph8.0 kmh 30.06 in1017.9 mb 0.00 in0.0 mm 0.00 in0.0 mm 0.00 in0.0 mm
11:00 AM 89.6°F32.0°C 79.4°F26.3°C 72% 2.0 mph SSE3.2 kmh SSE 5.0 mph8.0 kmh 30.06 in1017.9 mb 0.00 in0.0 mm 0.00 in0.0 mm 0.00 in0.0 mm
10:55 AM 89.6°F32.0°C 79.8°F26.6°C 73% 1.0 mph SE1.6 kmh SE 4.0 mph6.4 kmh 30.06 in1017.9 mb 0.00 in0.0 mm 0.00 in0.0 mm 0.00 in0.0 mm
10:50 AM 89.5°F31.9°C 80.1°F26.7°C 74% 2.0 mph SE3.2 kmh SE 5.0 mph8.0 kmh 30.06 in1017.9 mb 0.00 in0.0 mm 0.00 in0.0 mm 0.00 in0.0 mm
10:45 AM 89.2°F31.8°C 80.2°F26.8°C 75% 2.0 mph SE3.2 kmh SE 5.0 mph8.0 kmh 30.06 in1017.9 mb 0.00 in0.0 mm 0.00 in0.0 mm 0.00 in0.0 mm
10:40 AM 88.8°F31.6°C 80.3°F26.8°C 76% 3.0 mph SE4.8 kmh SE 6.0 mph9.7 kmh 30.06 in1017.9 mb 0.00 in0.0 mm 0.00 in0.0 mm 0.00 in0.0 mm
10:35 AM 88.4°F31.3°C 80.7°F27.1°C 78% 3.0 mph SSE4.8 kmh SSE 6.0 mph9.7 kmh 30.05 in1017.6 mb 0.00 in0.0 mm 0.00 in0.0 mm 0.00 in0.0 mm
10:30 AM 87.9°F31.1°C 81.0°F27.2°C 80% 2.0 mph S3.2 kmh S 6.0 mph9.7 kmh 30.06 in1017.9 mb 0.00 in0.0 mm 0.00 in0.0 mm 0.00 in0.0 mm
10:25 AM 87.2°F30.7°C 81.0°F27.2°C 82% 2.0 mph S3.2 kmh S 4.0 mph6.4 kmh 30.06 in1017.9 mb 0.00 in0.0 mm 0.00 in0.0 mm 0.00 in0.0 mm
10:20 AM 86.7°F30.4°C 80.2°F26.8°C 81% 3.0 mph S4.8 kmh S 5.0 mph8.0 kmh 30.06 in1017.9 mb 0.00 in0.0 mm 0.00 in0.0 mm 0.00 in0.0 mm
10:15 AM 86.2°F30.1°C 80.4°F26.9°C 83% 3.0 mph S4.8 kmh S 6.0 mph9.7 kmh 30.06 in1017.9 mb 0.00 in0.0 mm 0.00 in0.0 mm 0.00 in0.0 mm
10:10 AM 85.7°F29.8°C 80.3°F26.8°C 84% 2.0 mph S3.2 kmh S 6.0 mph9.7 kmh 30.06 in1017.9 mb 0.00 in0.0 mm 0.00 in0.0 mm 0.00 in0.0 mm
10:05 AM 85.1°F29.5°C 80.1°F26.7°C 85% 2.0 mph S3.2 kmh S 4.0 mph6.4 kmh 30.06 in1017.9 mb 0.00 in0.0 mm 0.00 in0.0 mm 0.00 in0.0 mm
10:00 AM 84.7°F29.3°C 79.7°F26.5°C 85% 2.0 mph SSE3.2 kmh SSE 4.0 mph6.4 kmh 30.06 in1017.9 mb 0.00 in0.0 mm 0.00 in0.0 mm 0.00 in0.0 mm
09:55 AM 84.5°F29.2°C 79.8°F26.6°C 86% 2.0 mph SE3.2 kmh SE 7.0 mph11.3 kmh 30.06 in1017.9 mb 0.00 in0.0 mm 0.00 in0.0 mm 0.00 in0.0 mm
09:50 AM 83.8°F28.8°C 79.9°F26.6°C 88% 3.0 mph SSE4.8 kmh SSE 7.0 mph11.3 kmh 30.06 in1017.9 mb 0.00 in0.0 mm 0.00 in0.0 mm 0.00 in0.0 mm
09:45 AM 83.1°F28.4°C 79.5°F26.4°C 89% 4.0 mph SSE6.4 kmh SSE 7.0 mph11.3 kmh 30.06 in1017.9 mb 0.00 in0.0 mm 0.00 in0.0 mm 0.00 in0.0 mm
09:40 AM 82.4°F28.0°C 79.5°F26.4°C 91% 3.0 mph SSE4.8 kmh SSE 6.0 mph9.7 kmh 30.06 in1017.9 mb 0.00 in0.0 mm 0.00 in0.0 mm 0.00 in0.0 mm
09:35 AM 81.7°F27.6°C 79.1°F26.2°C 92% 2.0 mph S3.2 kmh S 5.0 mph8.0 kmh 30.06 in1017.9 mb 0.00 in0.0 mm 0.00 in0.0 mm 0.00 in0.0 mm
09:30 AM 81.0°F27.2°C 78.8°F26.0°C 93% 2.0 mph SSE3.2 kmh SSE 4.0 mph6.4 kmh 30.06 in1017.9 mb 0.00 in0.0 mm 0.00 in0.0 mm 0.00 in0.0 mm
09:25 AM 80.2°F26.8°C 78.3°F25.7°C 94% 2.0 mph SSE3.2 kmh SSE 4.0 mph6.4 kmh 30.06 in1017.9 mb 0.00 in0.0 mm 0.00 in0.0 mm 0.00 in0.0 mm
09:20 AM 79.7°F26.5°C 78.1°F25.6°C 95% 2.0 mph SSW3.2 kmh SSW 4.0 mph6.4 kmh 30.06 in1017.9 mb 0.00 in0.0 mm 0.00 in0.0 mm 0.00 in0.0 mm
09:15 AM 79.1°F26.2°C 77.5°F25.3°C 95% 2.0 mph S3.2 kmh S 5.0 mph8.0 kmh 30.06 in1017.9 mb 0.00 in0.0 mm 0.00 in0.0 mm 0.00 in0.0 mm
09:10 AM 78.3°F25.7°C 76.7°F24.8°C 95% 3.0 mph SE4.8 kmh SE 6.0 mph9.7 kmh 30.06 in1017.9 mb 0.00 in0.0 mm 0.00 in0.0 mm 0.00 in0.0 mm
09:05 AM 77.6°F25.3°C 76.1°F24.5°C 95% 3.0 mph SSE4.8 kmh SSE 6.0 mph9.7 kmh 30.06 in1017.9 mb 0.00 in0.0 mm 0.00 in0.0 mm 0.00 in0.0 mm
09:00 AM 77.5°F25.3°C 76.0°F24.4°C 95% 2.0 mph SSE3.2 kmh SSE 5.0 mph8.0 kmh 30.06 in1017.9 mb 0.00 in0.0 mm 0.00 in0.0 mm 0.00 in0.0 mm
08:55 AM 77.3°F25.2°C 75.8°F24.3°C 95% 2.0 mph S3.2 kmh S 5.0 mph8.0 kmh 30.06 in1017.9 mb 0.00 in0.0 mm 0.00 in0.0 mm 0.00 in0.0 mm
08:50 AM 77.2°F25.1°C 75.7°F24.3°C 95% 2.0 mph S3.2 kmh S 5.0 mph8.0 kmh 30.06 in1017.9 mb 0.00 in0.0 mm 0.00 in0.0 mm 0.00 in0.0 mm
08:45 AM 77.1°F25.1°C 75.6°F24.2°C 95% 2.0 mph SSE3.2 kmh SSE 4.0 mph6.4 kmh 30.06 in1017.9 mb 0.00 in0.0 mm 0.00 in0.0 mm 0.00 in0.0 mm
08:40 AM 76.7°F24.8°C 75.2°F24.0°C 95% 2.0 mph SE3.2 kmh SE 5.0 mph8.0 kmh 30.07 in1018.3 mb 0.00 in0.0 mm 0.00 in0.0 mm 0.00 in0.0 mm
08:35 AM 76.5°F24.7°C 75.0°F23.9°C 95% 2.0 mph SE3.2 kmh SE 5.0 mph8.0 kmh 30.06 in1017.9 mb 0.00 in0.0 mm 0.00 in0.0 mm 0.00 in0.0 mm
08:30 AM 76.4°F24.7°C 74.9°F23.8°C 95% 3.0 mph SE4.8 kmh SE 6.0 mph9.7 kmh 30.06 in1017.9 mb 0.00 in0.0 mm 0.00 in0.0 mm 0.00 in0.0 mm
08:25 AM 76.4°F24.7°C 74.9°F23.8°C 95% 2.0 mph SE3.2 kmh SE 6.0 mph9.7 kmh 30.05 in1017.6 mb 0.00 in0.0 mm 0.00 in0.0 mm 0.00 in0.0 mm
08:20 AM 76.5°F24.7°C 75.0°F23.9°C 95% 1.0 mph SE1.6 kmh SE 5.0 mph8.0 kmh 30.05 in1017.6 mb 0.00 in0.0 mm 0.00 in0.0 mm 0.00 in0.0 mm
08:15 AM 76.1°F24.5°C 74.6°F23.7°C 95% 1.0 mph SE1.6 kmh SE 4.0 mph6.4 kmh 30.05 in1017.6 mb 0.00 in0.0 mm 0.00 in0.0 mm 0.00 in0.0 mm
08:10 AM 75.8°F24.3°C 74.3°F23.5°C 95% 2.0 mph SSW3.2 kmh SSW 4.0 mph6.4 kmh 30.05 in1017.6 mb 0.00 in0.0 mm 0.00 in0.0 mm 0.00 in0.0 mm
08:05 AM 75.6°F24.2°C 74.1°F23.4°C 95% 1.0 mph WSW1.6 kmh WSW 3.0 mph4.8 kmh 30.04 in1017.3 mb 0.00 in0.0 mm 0.00 in0.0 mm 0.00 in0.0 mm
08:00 AM 75.3°F24.1°C 73.8°F23.2°C 95% Calm Calm 2.0 mph3.2 kmh 30.03 in1016.9 mb 0.00 in0.0 mm 0.00 in0.0 mm 0.00 in0.0 mm
07:55 AM 75.2°F24.0°C 73.7°F23.2°C 95% Calm Calm 1.0 mph1.6 kmh 30.03 in1016.9 mb 0.00 in0.0 mm 0.00 in0.0 mm 0.00 in0.0 mm
07:50 AM 75.0°F23.9°C 73.5°F23.1°C 95% Calm Calm 1.0 mph1.6 kmh 30.03 in1016.9 mb 0.00 in0.0 mm 0.00 in0.0 mm 0.00 in0.0 mm
07:45 AM 74.9°F23.8°C 73.4°F23.0°C 95% Calm Calm 2.0 mph3.2 kmh 30.03 in1016.9 mb 0.00 in0.0 mm 0.00 in0.0 mm 0.00 in0.0 mm
07:40 AM 74.8°F23.8°C 73.3°F22.9°C 95% Calm Calm 2.0 mph3.2 kmh 30.02 in1016.6 mb 0.00 in0.0 mm 0.00 in0.0 mm 0.00 in0.0 mm
07:35 AM 74.5°F23.6°C 73.0°F22.8°C 95% Calm Calm 1.0 mph1.6 kmh 30.02 in1016.6 mb 0.00 in0.0 mm 0.00 in0.0 mm 0.00 in0.0 mm
07:30 AM 74.3°F23.5°C 72.8°F22.7°C 95% Calm Calm 1.0 mph1.6 kmh 30.02 in1016.6 mb 0.00 in0.0 mm 0.00 in0.0 mm 0.00 in0.0 mm
07:25 AM 74.2°F23.4°C 72.7°F22.6°C 95% Calm Calm 1.0 mph1.6 kmh 30.02 in1016.6 mb 0.00 in0.0 mm 0.00 in0.0 mm 0.00 in0.0 mm
07:20 AM 74.0°F23.3°C 72.5°F22.5°C 95% Calm Calm -- 30.02 in1016.6 mb 0.00 in0.0 mm 0.00 in0.0 mm 0.00 in0.0 mm
07:15 AM 73.9°F23.3°C 72.4°F22.4°C 95% Calm Calm -- 30.02 in1016.6 mb 0.00 in0.0 mm 0.00 in0.0 mm 0.00 in0.0 mm
07:10 AM 73.9°F23.3°C 72.4°F22.4°C 95% Calm Calm 1.0 mph1.6 kmh 30.02 in1016.6 mb 0.00 in0.0 mm 0.00 in0.0 mm 0.00 in0.0 mm
07:05 AM 73.8°F23.2°C 72.3°F22.4°C 95% Calm Calm 1.0 mph1.6 kmh 30.01 in1016.3 mb 0.00 in0.0 mm 0.00 in0.0 mm 0.00 in0.0 mm
07:00 AM 73.8°F23.2°C 72.3°F22.4°C 95% Calm Calm 1.0 mph1.6 kmh 30.02 in1016.6 mb 0.00 in0.0 mm 0.00 in0.0 mm 0.00 in0.0 mm
06:55 AM 73.9°F23.3°C 72.4°F22.4°C 95% Calm Calm -- 30.02 in1016.6 mb 0.00 in0.0 mm 0.00 in0.0 mm 0.00 in0.0 mm
06:50 AM 74.0°F23.3°C 72.2°F22.3°C 94% Calm Calm -- 30.01 in1016.3 mb 0.00 in0.0 mm 0.00 in0.0 mm 0.00 in0.0 mm
06:45 AM 74.0°F23.3°C 72.2°F22.3°C 94% Calm Calm -- 30.01 in1016.3 mb 0.00 in0.0 mm 0.00 in0.0 mm 0.00 in0.0 mm
06:40 AM 74.1°F23.4°C 72.3°F22.4°C 94% Calm Calm 1.0 mph1.6 kmh 30.01 in1016.3 mb 0.00 in0.0 mm 0.00 in0.0 mm 0.00 in0.0 mm
06:35 AM 74.2°F23.4°C 72.4°F22.4°C 94% Calm Calm 2.0 mph3.2 kmh 30.01 in1016.3 mb 0.00 in0.0 mm 0.00 in0.0 mm 0.00 in0.0 mm
06:30 AM 74.2°F23.4°C 72.4°F22.4°C 94% Calm Calm 2.0 mph3.2 kmh 30.01 in1016.3 mb 0.00 in0.0 mm 0.00 in0.0 mm 0.00 in0.0 mm
06:25 AM 74.2°F23.4°C 72.7°F22.6°C 95% Calm Calm 2.0 mph3.2 kmh 30.01 in1016.3 mb 0.00 in0.0 mm 0.00 in0.0 mm 0.00 in0.0 mm
06:20 AM 74.3°F23.5°C 72.8°F22.7°C 95% Calm Calm 2.0 mph3.2 kmh 30.01 in1016.3 mb 0.00 in0.0 mm 0.00 in0.0 mm 0.00 in0.0 mm
06:15 AM 74.3°F23.5°C 72.8°F22.7°C 95% Calm Calm 3.0 mph4.8 kmh 30.01 in1016.3 mb 0.00 in0.0 mm 0.00 in0.0 mm 0.00 in0.0 mm
06:10 AM 74.3°F23.5°C 72.8°F22.7°C 95% 1.0 mph SSE1.6 kmh SSE 3.0 mph4.8 kmh 30.00 in1015.9 mb 0.00 in0.0 mm 0.00 in0.0 mm 0.00 in0.0 mm
06:05 AM 74.2°F23.4°C 72.7°F22.6°C 95% Calm Calm 2.0 mph3.2 kmh 30.00 in1015.9 mb 0.00 in0.0 mm 0.00 in0.0 mm 0.00 in0.0 mm
06:00 AM 74.1°F23.4°C 72.3°F22.4°C 94% Calm Calm -- 30.00 in1015.9 mb 0.00 in0.0 mm 0.00 in0.0 mm 0.00 in0.0 mm
05:55 AM 74.0°F23.3°C 72.2°F22.3°C 94% Calm Calm 1.0 mph1.6 kmh 30.00 in1015.9 mb 0.00 in0.0 mm 0.00 in0.0 mm 0.00 in0.0 mm
05:50 AM 73.9°F23.3°C 72.1°F22.3°C 94% Calm Calm 1.0 mph1.6 kmh 30.01 in1016.3 mb 0.00 in0.0 mm 0.00 in0.0 mm 0.00 in0.0 mm
05:45 AM 73.9°F23.3°C 72.1°F22.3°C 94% Calm Calm 1.0 mph1.6 kmh 30.00 in1015.9 mb 0.00 in0.0 mm 0.00 in0.0 mm 0.00 in0.0 mm
05:40 AM 73.9°F23.3°C 72.1°F22.3°C 94% Calm Calm -- 30.00 in1015.9 mb 0.00 in0.0 mm 0.00 in0.0 mm 0.00 in0.0 mm
05:35 AM 74.0°F23.3°C 72.2°F22.3°C 94% Calm Calm -- 30.00 in1015.9 mb 0.00 in0.0 mm 0.00 in0.0 mm 0.00 in0.0 mm
05:30 AM 74.0°F23.3°C 72.2°F22.3°C 94% Calm Calm -- 30.00 in1015.9 mb 0.00 in0.0 mm 0.00 in0.0 mm 0.00 in0.0 mm
05:25 AM 74.0°F23.3°C 72.2°F22.3°C 94% Calm Calm -- 30.00 in1015.9 mb 0.00 in0.0 mm 0.00 in0.0 mm 0.00 in0.0 mm
05:20 AM 74.0°F23.3°C 72.2°F22.3°C 94% Calm Calm -- 30.00 in1015.9 mb 0.00 in0.0 mm 0.00 in0.0 mm 0.00 in0.0 mm
05:15 AM 74.1°F23.4°C 72.3°F22.4°C 94% Calm Calm 1.0 mph1.6 kmh 30.00 in1015.9 mb 0.00 in0.0 mm 0.00 in0.0 mm 0.00 in0.0 mm
05:10 AM 74.2°F23.4°C 72.4°F22.4°C 94% Calm Calm 2.0 mph3.2 kmh 30.00 in1015.9 mb 0.00 in0.0 mm 0.00 in0.0 mm 0.00 in0.0 mm
05:05 AM 74.2°F23.4°C 72.4°F22.4°C 94% Calm Calm 2.0 mph3.2 kmh 30.00 in1015.9 mb 0.00 in0.0 mm 0.00 in0.0 mm 0.00 in0.0 mm
05:00 AM 74.2°F23.4°C 72.4°F22.4°C 94% Calm Calm 1.0 mph1.6 kmh 30.00 in1015.9 mb 0.00 in0.0 mm 0.00 in0.0 mm 0.00 in0.0 mm
04:55 AM 74.3°F23.5°C 72.5°F22.5°C 94% 1.0 mph SSE1.6 kmh SSE 2.0 mph3.2 kmh 30.00 in1015.9 mb 0.00 in0.0 mm 0.00 in0.0 mm 0.00 in0.0 mm
04:50 AM 74.3°F23.5°C 72.5°F22.5°C 94% 1.0 mph S1.6 kmh S 3.0 mph4.8 kmh 30.00 in1015.9 mb 0.00 in0.0 mm 0.00 in0.0 mm 0.00 in0.0 mm
04:45 AM 74.3°F23.5°C 72.5°F22.5°C 94% 1.0 mph S1.6 kmh S 3.0 mph4.8 kmh 30.00 in1015.9 mb 0.00 in0.0 mm 0.00 in0.0 mm 0.00 in0.0 mm
04:40 AM 74.3°F23.5°C 72.5°F22.5°C 94% 1.0 mph S1.6 kmh S 2.0 mph3.2 kmh 30.00 in1015.9 mb 0.00 in0.0 mm 0.00 in0.0 mm 0.00 in0.0 mm
04:35 AM 74.3°F23.5°C 72.5°F22.5°C 94% Calm Calm -- 30.00 in1015.9 mb 0.00 in0.0 mm 0.00 in0.0 mm 0.00 in0.0 mm
04:30 AM 74.3°F23.5°C 72.5°F22.5°C 94% Calm Calm -- 30.00 in1015.9 mb 0.00 in0.0 mm 0.00 in0.0 mm 0.00 in0.0 mm
04:25 AM 74.4°F23.6°C 72.6°F22.6°C 94% Calm Calm -- 30.00 in1015.9 mb 0.00 in0.0 mm 0.00 in0.0 mm 0.00 in0.0 mm
04:20 AM 74.4°F23.6°C 72.6°F22.6°C 94% Calm Calm -- 30.00 in1015.9 mb 0.00 in0.0 mm 0.00 in0.0 mm 0.00 in0.0 mm
04:15 AM 74.4°F23.6°C 72.6°F22.6°C 94% Calm Calm -- 30.00 in1015.9 mb 0.00 in0.0 mm 0.00 in0.0 mm 0.00 in0.0 mm
04:10 AM 74.4°F23.6°C 72.6°F22.6°C 94% Calm Calm -- 30.00 in1015.9 mb 0.00 in0.0 mm 0.00 in0.0 mm 0.00 in0.0 mm
04:05 AM 74.5°F23.6°C 72.7°F22.6°C 94% Calm Calm -- 30.00 in1015.9 mb 0.00 in0.0 mm 0.00 in0.0 mm 0.00 in0.0 mm
04:00 AM 74.6°F23.7°C 72.8°F22.7°C 94% Calm Calm -- 30.00 in1015.9 mb 0.00 in0.0 mm 0.00 in0.0 mm 0.00 in0.0 mm
03:55 AM 74.7°F23.7°C 72.9°F22.7°C 94% Calm Calm -- 30.00 in1015.9 mb 0.00 in0.0 mm 0.00 in0.0 mm 0.00 in0.0 mm
03:50 AM 74.8°F23.8°C 73.0°F22.8°C 94% Calm Calm -- 30.01 in1016.3 mb 0.00 in0.0 mm 0.00 in0.0 mm 0.00 in0.0 mm
03:45 AM 74.8°F23.8°C 73.0°F22.8°C 94% Calm Calm 1.0 mph1.6 kmh 30.00 in1015.9 mb 0.00 in0.0 mm 0.00 in0.0 mm 0.00 in0.0 mm
03:40 AM 74.9°F23.8°C 73.1°F22.8°C 94% Calm Calm 1.0 mph1.6 kmh 30.00 in1015.9 mb 0.00 in0.0 mm 0.00 in0.0 mm 0.00 in0.0 mm
03:35 AM 75.0°F23.9°C 73.2°F22.9°C 94% 1.0 mph N1.6 kmh N 3.0 mph4.8 kmh 30.01 in1016.3 mb 0.00 in0.0 mm 0.00 in0.0 mm 0.00 in0.0 mm
03:30 AM 75.1°F23.9°C 73.3°F22.9°C 94% 1.0 mph N1.6 kmh N 3.0 mph4.8 kmh 30.01 in1016.3 mb 0.00 in0.0 mm 0.00 in0.0 mm 0.00 in0.0 mm
03:25 AM 75.1°F23.9°C 73.3°F22.9°C 94% 2.0 mph N3.2 kmh N 6.0 mph9.7 kmh 30.01 in1016.3 mb 0.00 in0.0 mm 0.00 in0.0 mm 0.00 in0.0 mm
03:20 AM 75.1°F23.9°C 73.3°F22.9°C 94% 2.0 mph N3.2 kmh N 6.0 mph9.7 kmh 30.01 in1016.3 mb 0.00 in0.0 mm 0.00 in0.0 mm 0.00 in0.0 mm
03:15 AM 75.0°F23.9°C 73.2°F22.9°C 94% 2.0 mph N3.2 kmh N 5.0 mph8.0 kmh 30.01 in1016.3 mb 0.00 in0.0 mm 0.00 in0.0 mm 0.00 in0.0 mm
03:10 AM 74.8°F23.8°C 73.0°F22.8°C 94% 2.0 mph N3.2 kmh N 4.0 mph6.4 kmh 30.01 in1016.3 mb 0.00 in0.0 mm 0.00 in0.0 mm 0.00 in0.0 mm
03:05 AM 74.7°F23.7°C 72.9°F22.7°C 94% 1.0 mph NNE1.6 kmh NNE 3.0 mph4.8 kmh 30.01 in1016.3 mb 0.00 in0.0 mm 0.00 in0.0 mm 0.00 in0.0 mm
03:00 AM 74.5°F23.6°C 72.7°F22.6°C 94% Calm Calm 3.0 mph4.8 kmh 30.01 in1016.3 mb 0.00 in0.0 mm 0.00 in0.0 mm 0.00 in0.0 mm
02:55 AM 74.4°F23.6°C 72.6°F22.6°C 94% Calm Calm 2.0 mph3.2 kmh 30.01 in1016.3 mb 0.00 in0.0 mm 0.00 in0.0 mm 0.00 in0.0 mm
02:50 AM 74.4°F23.6°C 72.6°F22.6°C 94% Calm Calm 2.0 mph3.2 kmh 30.01 in1016.3 mb 0.00 in0.0 mm 0.00 in0.0 mm 0.00 in0.0 mm
02:45 AM 74.4°F23.6°C 72.6°F22.6°C 94% Calm Calm 2.0 mph3.2 kmh 30.01 in1016.3 mb 0.00 in0.0 mm 0.00 in0.0 mm 0.00 in0.0 mm
02:40 AM 74.4°F23.6°C 72.6°F22.6°C 94% Calm Calm 1.0 mph1.6 kmh 30.01 in1016.3 mb 0.00 in0.0 mm 0.00 in0.0 mm 0.00 in0.0 mm
02:35 AM 74.5°F23.6°C 72.7°F22.6°C 94% Calm Calm -- 30.01 in1016.3 mb 0.00 in0.0 mm 0.00 in0.0 mm 0.00 in0.0 mm
02:30 AM 74.6°F23.7°C 72.8°F22.7°C 94% Calm Calm 1.0 mph1.6 kmh 30.01 in1016.3 mb 0.00 in0.0 mm 0.00 in0.0 mm 0.00 in0.0 mm
02:25 AM 74.7°F23.7°C 72.9°F22.7°C 94% Calm Calm 1.0 mph1.6 kmh 30.01 in1016.3 mb 0.00 in0.0 mm 0.00 in0.0 mm 0.00 in0.0 mm
02:20 AM 74.8°F23.8°C 73.0°F22.8°C 94% Calm Calm -- 30.01 in1016.3 mb 0.00 in0.0 mm 0.00 in0.0 mm 0.00 in0.0 mm
02:15 AM 74.8°F23.8°C 73.0°F22.8°C 94% Calm Calm 2.0 mph3.2 kmh 30.01 in1016.3 mb 0.00 in0.0 mm 0.00 in0.0 mm 0.00 in0.0 mm
02:10 AM 74.9°F23.8°C 73.1°F22.8°C 94% 1.0 mph SE1.6 kmh SE 7.0 mph11.3 kmh 30.01 in1016.3 mb 0.00 in0.0 mm 0.00 in0.0 mm 0.00 in0.0 mm
02:05 AM 74.9°F23.8°C 73.1°F22.8°C 94% 3.0 mph SE4.8 kmh SE 8.0 mph12.9 kmh 30.00 in1015.9 mb 0.00 in0.0 mm 0.00 in0.0 mm 0.00 in0.0 mm
02:00 AM 74.9°F23.8°C 73.1°F22.8°C 94% 4.0 mph SE6.4 kmh SE 8.0 mph12.9 kmh 29.99 in1015.6 mb 0.00 in0.0 mm 0.00 in0.0 mm 0.00 in0.0 mm
01:55 AM 74.9°F23.8°C 73.1°F22.8°C 94% 4.0 mph SE6.4 kmh SE 10.0 mph16.1 kmh 29.98 in1015.2 mb 0.00 in0.0 mm 0.00 in0.0 mm 0.00 in0.0 mm
01:50 AM 74.9°F23.8°C 73.1°F22.8°C 94% 5.0 mph SE8.0 kmh SE 10.0 mph16.1 kmh 29.98 in1015.2 mb 0.00 in0.0 mm 0.00 in0.0 mm 0.00 in0.0 mm
01:45 AM 74.9°F23.8°C 73.1°F22.8°C 94% 5.0 mph SE8.0 kmh SE 10.0 mph16.1 kmh 29.99 in1015.6 mb 0.00 in0.0 mm 0.00 in0.0 mm 0.00 in0.0 mm
01:40 AM 74.9°F23.8°C 73.1°F22.8°C 94% 4.0 mph SE6.4 kmh SE 8.0 mph12.9 kmh 29.99 in1015.6 mb 0.00 in0.0 mm 0.00 in0.0 mm 0.00 in0.0 mm
01:35 AM 74.8°F23.8°C 73.0°F22.8°C 94% 3.0 mph SE4.8 kmh SE 7.0 mph11.3 kmh 29.99 in1015.6 mb 0.00 in0.0 mm 0.00 in0.0 mm 0.00 in0.0 mm
01:30 AM 74.8°F23.8°C 73.0°F22.8°C 94% 3.0 mph SE4.8 kmh SE 6.0 mph9.7 kmh 30.00 in1015.9 mb 0.00 in0.0 mm 0.00 in0.0 mm 0.00 in0.0 mm
01:25 AM 74.9°F23.8°C 73.1°F22.8°C 94% 3.0 mph SSE4.8 kmh SSE 6.0 mph9.7 kmh 30.01 in1016.3 mb 0.00 in0.0 mm 0.00 in0.0 mm 0.00 in0.0 mm
01:20 AM 74.9°F23.8°C 73.1°F22.8°C 94% 3.0 mph SSE4.8 kmh SSE 6.0 mph9.7 kmh 30.01 in1016.3 mb 0.00 in0.0 mm 0.00 in0.0 mm 0.00 in0.0 mm
01:15 AM 75.0°F23.9°C 73.2°F22.9°C 94% 3.0 mph SE4.8 kmh SE 6.0 mph9.7 kmh 30.01 in1016.3 mb 0.00 in0.0 mm 0.00 in0.0 mm 0.00 in0.0 mm
01:10 AM 75.0°F23.9°C 73.2°F22.9°C 94% 3.0 mph SE4.8 kmh SE 6.0 mph9.7 kmh 30.01 in1016.3 mb 0.00 in0.0 mm 0.00 in0.0 mm 0.00 in0.0 mm
01:05 AM 75.0°F23.9°C 73.2°F22.9°C 94% 2.0 mph SE3.2 kmh SE 5.0 mph8.0 kmh 30.02 in1016.6 mb 0.00 in0.0 mm 0.00 in0.0 mm 0.00 in0.0 mm
01:00 AM 74.9°F23.8°C 73.1°F22.8°C 94% 1.0 mph SE1.6 kmh SE 4.0 mph6.4 kmh 30.02 in1016.6 mb 0.00 in0.0 mm 0.00 in0.0 mm 0.00 in0.0 mm
12:55 AM 74.9°F23.8°C 73.1°F22.8°C 94% Calm Calm 2.0 mph3.2 kmh 30.02 in1016.6 mb 0.00 in0.0 mm 0.00 in0.0 mm 0.00 in0.0 mm
12:50 AM 75.0°F23.9°C 73.2°F22.9°C 94% Calm Calm -- 30.03 in1016.9 mb 0.00 in0.0 mm 0.00 in0.0 mm 0.00 in0.0 mm
12:45 AM 75.0°F23.9°C 73.2°F22.9°C 94% Calm Calm 2.0 mph3.2 kmh 30.03 in1016.9 mb 0.00 in0.0 mm 0.00 in0.0 mm 0.00 in0.0 mm
12:40 AM 75.1°F23.9°C 72.9°F22.7°C 93% Calm Calm 2.0 mph3.2 kmh 30.04 in1017.3 mb 0.00 in0.0 mm 0.00 in0.0 mm 0.00 in0.0 mm
12:35 AM 75.1°F23.9°C 72.9°F22.7°C 93% Calm Calm -- 30.03 in1016.9 mb 0.00 in0.0 mm 0.00 in0.0 mm 0.00 in0.0 mm
12:30 AM 75.2°F24.0°C 73.0°F22.8°C 93% Calm Calm 2.0 mph3.2 kmh 30.04 in1017.3 mb 0.00 in0.0 mm 0.00 in0.0 mm 0.00 in0.0 mm
12:25 AM 75.3°F24.1°C 73.1°F22.8°C 93% 1.0 mph ENE1.6 kmh ENE 2.0 mph3.2 kmh 30.04 in1017.3 mb 0.00 in0.0 mm 0.00 in0.0 mm 0.00 in0.0 mm
12:20 AM 75.3°F24.1°C 73.1°F22.8°C 93% Calm Calm 2.0 mph3.2 kmh 30.04 in1017.3 mb 0.00 in0.0 mm 0.00 in0.0 mm 0.00 in0.0 mm
12:15 AM 75.4°F24.1°C 73.2°F22.9°C 93% Calm Calm 1.0 mph1.6 kmh 30.05 in1017.6 mb 0.00 in0.0 mm 0.00 in0.0 mm 0.00 in0.0 mm
12:10 AM 75.4°F24.1°C 73.2°F22.9°C 93% Calm Calm 1.0 mph1.6 kmh 30.05 in1017.6 mb 0.00 in0.0 mm 0.00 in0.0 mm 0.00 in0.0 mm
12:05 AM 75.4°F24.1°C 73.2°F22.9°C 93% Calm Calm 2.0 mph3.2 kmh 30.06 in1017.9 mb 0.00 in0.0 mm 0.00 in0.0 mm 0.00 in0.0 mm
12:00 AM 75.3°F24.1°C 73.1°F22.8°C 93% Calm Calm 2.0 mph3.2 kmh 30.06 in1017.9 mb 0.00 in0.0 mm 0.00 in0.0 mm 0.00 in0.0 mm